createdAt,value
2023-02-04T00:01:45.309Z,99185.45
2023-02-04T00:04:13.660Z,99182.74
2023-02-04T00:06:42.537Z,99181.83
2023-02-04T00:09:10.748Z,99180.44
2023-02-04T00:11:41.223Z,99182.80
2023-02-04T00:14:09.613Z,99184.98
2023-02-04T00:16:37.830Z,99187.23
2023-02-04T00:19:06.104Z,99181.21
2023-02-04T00:21:35.063Z,99175.61
2023-02-04T00:24:04.273Z,99172.98
2023-02-04T00:26:32.444Z,99175.64
2023-02-04T00:29:00.853Z,99174.80
2023-02-04T00:31:29.495Z,99174.26
2023-02-04T00:33:59.722Z,99171.35
2023-02-04T00:36:27.760Z,99170.82
2023-02-04T00:38:56.166Z,99167.98
2023-02-04T00:41:24.522Z,99166.26
2023-02-04T00:43:52.900Z,99168.88
2023-02-04T00:46:21.059Z,99166.38
2023-02-04T00:48:49.746Z,99160.92
2023-02-04T00:51:17.974Z,99166.55
2023-02-04T00:53:46.301Z,99169.55
2023-02-04T00:56:14.456Z,99166.13
2023-02-04T00:58:43.169Z,99165.64
2023-02-04T01:01:11.522Z,99170.77
2023-02-04T01:03:39.736Z,99171.20
2023-02-04T01:06:08.206Z,99171.59
2023-02-04T01:08:36.985Z,99168.16
2023-02-04T01:11:05.484Z,99169.52
2023-02-04T01:13:34.268Z,99170.55
2023-02-04T01:16:03.019Z,99175.16
2023-02-04T01:18:32.651Z,99170.94
2023-02-04T01:21:01.050Z,99168.63
2023-02-04T01:23:29.649Z,99168.73
2023-02-04T01:25:58.231Z,99172.22
2023-02-04T01:28:27.518Z,99169.70
2023-02-04T01:30:56.139Z,99165.21
2023-02-04T01:33:24.901Z,99166.48
2023-02-04T01:35:53.999Z,99165.67
2023-02-04T01:38:22.379Z,99166.13
2023-02-04T01:40:50.964Z,99168.06
2023-02-04T01:43:22.493Z,99166.89
2023-02-04T01:45:51.338Z,99169.15
2023-02-04T01:48:20.634Z,99164.34
2023-02-04T01:50:54.112Z,99162.85
2023-02-04T01:53:25.262Z,99162.55
2023-02-04T01:55:53.534Z,99159.48
2023-02-04T01:58:21.982Z,99160.69
2023-02-04T02:00:51.363Z,99160.58
2023-02-04T02:03:19.705Z,99156.81
2023-02-04T02:05:52.301Z,99154.77
2023-02-04T02:08:20.797Z,99155.63
2023-02-04T02:10:48.973Z,99158.34
2023-02-04T02:13:19.274Z,99156.17
2023-02-04T02:15:47.786Z,99157.48
2023-02-04T02:18:20.125Z,99154.39
2023-02-04T02:20:48.717Z,99158.11
2023-02-04T02:23:26.302Z,99161.28
2023-02-04T02:25:54.679Z,99165.29
2023-02-04T02:28:23.475Z,99161.86
2023-02-04T02:30:51.922Z,99162.60
2023-02-04T02:33:20.864Z,99161.23
2023-02-04T02:35:49.127Z,99164.23
2023-02-04T02:38:18.394Z,99165.11
2023-02-04T02:40:48.241Z,99165.08
2023-02-04T02:43:17.643Z,99164.84
2023-02-04T02:45:46.098Z,99167.66
2023-02-04T02:48:14.811Z,99167.73
2023-02-04T02:50:42.992Z,99165.09
2023-02-04T02:53:18.876Z,99167.31
2023-02-04T02:55:47.529Z,99168.13
2023-02-04T02:58:30.012Z,99167.59
2023-02-04T03:00:58.666Z,99166.79
2023-02-04T03:03:28.804Z,99167.13
2023-02-04T03:06:18.027Z,99165.59
2023-02-04T03:08:47.039Z,99169.50
2023-02-04T03:11:15.959Z,99174.49
2023-02-04T03:13:44.800Z,99176.00
2023-02-04T03:16:13.081Z,99179.67
2023-02-04T03:18:41.683Z,99179.79
2023-02-04T03:21:11.956Z,99177.52
2023-02-04T03:23:40.477Z,99175.70
2023-02-04T03:26:08.964Z,99180.39
2023-02-04T03:28:41.172Z,99178.32
2023-02-04T03:31:09.676Z,99177.49
2023-02-04T03:33:37.819Z,99181.17
2023-02-04T03:36:06.978Z,99179.81
2023-02-04T03:38:37.930Z,99180.30
2023-02-04T03:41:06.249Z,99179.09
2023-02-04T03:43:34.693Z,99181.29
2023-02-04T03:46:02.889Z,99183.59
2023-02-04T03:48:31.444Z,99186.04
2023-02-04T03:50:59.837Z,99186.67
2023-02-04T03:53:28.220Z,99185.97
2023-02-04T03:55:56.488Z,99184.80
2023-02-04T03:58:24.968Z,99185.03
2023-02-04T04:00:53.556Z,99184.92
2023-02-04T04:03:21.933Z,99186.50
2023-02-04T04:05:50.560Z,99191.27
2023-02-04T04:08:19.535Z,99195.47
2023-02-04T04:10:48.003Z,99197.98
2023-02-04T04:13:16.383Z,99200.11
2023-02-04T04:15:45.669Z,99200.21
2023-02-04T04:18:14.168Z,99198.67
2023-02-04T04:20:42.502Z,99201.82
2023-02-04T04:23:10.833Z,99200.35
2023-02-04T04:25:39.376Z,99202.02
2023-02-04T04:28:08.286Z,99203.03
2023-02-04T04:30:37.159Z,99203.21
2023-02-04T04:33:06.604Z,99207.86
2023-02-04T04:35:37.123Z,99208.02
2023-02-04T04:38:05.299Z,99209.25
2023-02-04T04:40:34.172Z,99210.41
2023-02-04T04:43:03.093Z,99213.73
2023-02-04T04:45:31.562Z,99217.71
2023-02-04T04:47:59.854Z,99214.00
2023-02-04T04:50:28.325Z,99215.77
2023-02-04T04:52:56.702Z,99217.66
2023-02-04T04:55:25.090Z,99220.02
2023-02-04T04:57:53.676Z,99222.77
2023-02-04T05:00:22.155Z,99224.23
2023-02-04T05:02:50.542Z,99227.61
2023-02-04T05:05:18.899Z,99230.67
2023-02-04T05:07:47.230Z,99234.11
2023-02-04T05:10:16.206Z,99235.02
2023-02-04T05:12:44.601Z,99234.84
2023-02-04T05:15:15.517Z,99240.48
2023-02-04T05:17:43.891Z,99248.08
2023-02-04T05:20:12.350Z,99251.34
2023-02-04T05:22:41.271Z,99254.94
2023-02-04T05:25:09.590Z,99260.55
2023-02-04T05:27:37.928Z,99262.88
2023-02-04T05:30:06.524Z,99259.94
2023-02-04T05:32:35.846Z,99264.83
2023-02-04T05:35:05.611Z,99266.33
2023-02-04T05:37:34.468Z,99269.48
2023-02-04T05:40:03.314Z,99270.47
2023-02-04T05:42:32.110Z,99278.52
2023-02-04T05:45:00.557Z,99280.31
2023-02-04T05:47:29.269Z,99281.83
2023-02-04T05:49:57.960Z,99288.91
2023-02-04T05:52:26.443Z,99289.48
2023-02-04T05:54:58.102Z,99295.64
2023-02-04T05:57:27.143Z,99297.09
2023-02-04T05:59:55.302Z,99300.19
2023-02-04T06:02:24.067Z,99305.26
2023-02-04T06:04:52.541Z,99308.71
2023-02-04T06:07:21.261Z,99313.14
2023-02-04T06:09:49.710Z,99310.53
2023-02-04T06:12:18.105Z,99312.19
2023-02-04T06:14:46.265Z,99312.87
2023-02-04T06:17:18.028Z,99313.66
2023-02-04T06:19:46.320Z,99318.15
2023-02-04T06:22:17.655Z,99319.36
2023-02-04T06:24:49.823Z,99328.34
2023-02-04T06:27:23.559Z,99327.20
2023-02-04T06:29:54.812Z,99329.43
2023-02-04T06:32:23.372Z,99329.30
2023-02-04T06:34:51.747Z,99328.92
2023-02-04T06:37:20.531Z,99330.70
2023-02-04T06:39:48.581Z,99332.80
2023-02-04T06:42:16.967Z,99341.71
2023-02-04T06:44:45.052Z,99345.88
2023-02-04T06:47:16.307Z,99348.00
2023-02-04T06:49:44.524Z,99352.92
2023-02-04T06:52:13.038Z,99351.90
2023-02-04T06:54:44.451Z,99359.17
2023-02-04T06:57:12.636Z,99362.49
2023-02-04T06:59:43.363Z,99365.61
2023-02-04T07:02:12.614Z,99362.94
2023-02-04T07:04:51.174Z,99362.23
2023-02-04T07:10:18.529Z,99364.09
2023-02-04T07:13:06.744Z,99371.49
2023-02-04T07:15:35.818Z,99370.54
2023-02-04T07:18:04.466Z,99379.02
2023-02-04T07:20:33.051Z,99380.91
2023-02-04T07:23:01.554Z,99379.39
2023-02-04T07:25:29.810Z,99377.42
2023-02-04T07:27:59.523Z,99381.67
2023-02-04T07:30:27.924Z,99386.56
2023-02-04T07:32:56.364Z,99390.98
2023-02-04T07:35:24.784Z,99385.36
2023-02-04T07:37:52.997Z,99389.64
2023-02-04T07:40:28.946Z,99387.23
2023-02-04T07:42:57.886Z,99387.88
2023-02-04T07:45:28.317Z,99387.46
2023-02-04T07:47:56.597Z,99384.02
2023-02-04T07:50:25.481Z,99390.86
2023-02-04T07:52:53.764Z,99388.97
2023-02-04T07:55:21.948Z,99393.94
2023-02-04T07:57:50.315Z,99392.20
2023-02-04T08:00:19.351Z,99388.80
2023-02-04T08:02:48.488Z,99397.59
2023-02-04T08:05:16.951Z,99394.58
2023-02-04T08:07:45.676Z,99394.04
2023-02-04T08:10:13.841Z,99395.17
2023-02-04T08:12:42.166Z,99396.09
2023-02-04T08:15:10.612Z,99396.62
2023-02-04T08:17:39.422Z,99397.41
2023-02-04T08:20:09.857Z,99402.50
2023-02-04T08:22:38.597Z,99402.30
2023-02-04T08:25:07.619Z,99402.00
2023-02-04T08:27:36.212Z,99408.61
2023-02-04T08:30:10.581Z,99411.42
2023-02-04T08:32:43.923Z,99417.11
2023-02-04T08:35:12.849Z,99420.02
2023-02-04T08:37:41.093Z,99416.02
2023-02-04T08:40:11.031Z,99420.27
2023-02-04T08:42:39.491Z,99424.27
2023-02-04T08:45:08.154Z,99426.04
2023-02-04T08:47:37.807Z,99428.81
2023-02-04T08:50:07.610Z,99429.12
2023-02-04T08:52:36.913Z,99432.48
2023-02-04T08:55:06.226Z,99434.67
2023-02-04T08:57:35.226Z,99436.27
2023-02-04T09:00:04.004Z,99433.19
2023-02-04T09:02:36.670Z,99435.21
2023-02-04T09:05:05.352Z,99435.58
2023-02-04T09:07:33.975Z,99438.30
2023-02-04T09:10:02.163Z,99442.75
2023-02-04T09:12:30.617Z,99442.04
2023-02-04T09:14:58.668Z,99441.06
2023-02-04T09:17:26.854Z,99440.89
2023-02-04T09:19:54.934Z,99436.55
2023-02-04T09:22:23.169Z,99440.27
2023-02-04T09:24:51.521Z,99441.88
2023-02-04T09:27:20.194Z,99443.70
2023-02-04T09:29:48.376Z,99444.72
2023-02-04T09:32:16.865Z,99444.98
2023-02-04T09:34:45.078Z,99443.23
2023-02-04T09:37:13.225Z,99438.57
2023-02-04T09:39:41.737Z,99442.27
2023-02-04T09:42:13.370Z,99443.91
2023-02-04T09:44:41.763Z,99445.02
2023-02-04T09:47:10.283Z,99446.95
2023-02-04T09:49:38.712Z,99449.70
2023-02-04T09:52:10.926Z,99451.51
2023-02-04T09:54:39.062Z,99452.58
2023-02-04T09:57:18.366Z,99450.10
2023-02-04T09:59:46.720Z,99451.36
2023-02-04T10:02:24.636Z,99451.84
2023-02-04T10:04:57.741Z,99451.11
2023-02-04T10:07:27.496Z,99452.69
2023-02-04T10:09:56.241Z,99454.67
2023-02-04T10:12:24.676Z,99457.33
2023-02-04T10:14:52.909Z,99457.05
2023-02-04T10:17:22.150Z,99461.48
2023-02-04T10:19:50.369Z,99462.17
2023-02-04T10:22:20.444Z,99466.56
2023-02-04T10:24:49.252Z,99473.58
2023-02-04T10:27:17.764Z,99472.92
2023-02-04T10:29:59.117Z,99477.36
2023-02-04T10:32:32.223Z,99480.19
2023-02-04T10:35:02.082Z,99481.33
2023-02-04T10:37:32.300Z,99486.02
2023-02-04T10:40:00.659Z,99486.25
2023-02-04T10:42:30.125Z,99488.37
2023-02-04T10:44:58.685Z,99496.40
2023-02-04T10:47:31.073Z,99503.11
2023-02-04T10:50:05.453Z,99504.94
2023-02-04T10:52:38.749Z,99508.90
2023-02-04T10:55:20.949Z,99510.51
2023-02-04T10:57:50.131Z,99518.63
2023-02-04T11:00:21.663Z,99524.48
2023-02-04T11:03:03.550Z,99529.44
2023-02-04T11:05:33.938Z,99526.27
2023-02-04T11:08:03.031Z,99529.79
2023-02-04T11:10:33.583Z,99530.95
2023-02-04T11:13:05.139Z,99535.77
2023-02-04T11:16:24.096Z,99537.31
2023-02-04T11:19:02.204Z,99541.02
2023-02-04T11:21:33.126Z,99545.23
2023-02-04T11:24:16.627Z,99549.20
2023-02-04T11:26:46.026Z,99546.21
2023-02-04T11:29:17.325Z,99548.27
2023-02-04T11:31:57.827Z,99551.03
2023-02-04T11:34:28.081Z,99552.29
2023-02-04T11:36:59.582Z,99550.99
2023-02-04T11:39:42.643Z,99550.27
2023-02-04T11:42:40.523Z,99548.09
2023-02-04T11:45:28.989Z,99545.77
2023-02-04T11:47:58.928Z,99544.20
2023-02-04T11:50:30.734Z,99542.69
2023-02-04T11:52:59.708Z,99548.39
2023-02-04T11:55:29.817Z,99548.89
2023-02-04T11:57:58.573Z,99553.66
2023-02-04T12:00:31.439Z,99556.65
2023-02-04T12:03:12.098Z,99562.39
2023-02-04T12:05:41.116Z,99560.66
2023-02-04T12:08:11.833Z,99561.28
2023-02-04T12:10:47.389Z,99561.48
2023-02-04T12:13:23.650Z,99563.05
2023-02-04T12:16:04.784Z,99567.81
2023-02-04T12:18:34.231Z,99564.91
2023-02-04T12:21:04.555Z,99567.34
2023-02-04T12:23:32.758Z,99572.05
2023-02-04T12:26:01.160Z,99568.36
2023-02-04T12:28:29.852Z,99568.16
2023-02-04T12:30:58.864Z,99569.41
2023-02-04T12:33:27.281Z,99574.55
2023-02-04T12:35:55.825Z,99578.62
2023-02-04T12:38:24.621Z,99585.34
2023-02-04T12:40:52.811Z,99584.77
2023-02-04T12:43:21.466Z,99587.48
2023-02-04T12:45:50.290Z,99593.02
2023-02-04T12:48:18.523Z,99592.27
2023-02-04T12:50:49.196Z,99588.89
2023-02-04T12:53:17.486Z,99594.57
2023-02-04T12:55:46.016Z,99594.58
2023-02-04T12:58:14.114Z,99595.34
2023-02-04T13:00:42.402Z,99598.52
2023-02-04T13:03:11.436Z,99605.80
2023-02-04T16:16:25.485Z,99813.04
2023-02-04T16:18:54.081Z,99813.71
2023-02-04T16:21:22.274Z,99814.93
2023-02-04T16:23:50.891Z,99820.08
2023-02-04T16:26:19.270Z,99825.61
2023-02-04T16:28:48.009Z,99831.02
2023-02-04T16:31:19.462Z,99833.89
2023-02-04T16:33:48.303Z,99833.79
2023-02-04T16:36:18.462Z,99830.17
2023-02-04T16:38:47.465Z,99833.45
2023-02-04T16:41:16.307Z,99831.91
2023-02-04T16:43:45.202Z,99832.73
2023-02-04T16:46:20.062Z,99835.65
2023-02-04T16:48:48.810Z,99837.23
2023-02-04T16:51:20.794Z,99844.27
2023-02-04T16:53:50.559Z,99847.46
2023-02-04T16:56:18.783Z,99844.52
2023-02-04T16:58:47.580Z,99849.61
2023-02-04T17:01:17.409Z,99852.70
2023-02-04T17:03:45.649Z,99855.96
2023-02-04T17:06:16.534Z,99858.83
2023-02-04T17:08:44.987Z,99859.55
2023-02-04T17:11:32.699Z,99865.14
2023-02-04T17:14:08.722Z,99859.34
2023-02-04T17:16:38.941Z,99864.19
2023-02-04T17:19:09.643Z,99863.13
2023-02-04T17:21:39.471Z,99858.97
2023-02-04T17:24:08.349Z,99861.83
2023-02-04T17:26:38.203Z,99865.08
2023-02-04T17:29:07.889Z,99864.73
2023-02-04T17:31:36.431Z,99866.11
2023-02-04T17:34:05.566Z,99870.59
2023-02-04T17:36:33.751Z,99872.25
2023-02-04T17:39:02.226Z,99875.11
2023-02-04T17:41:31.030Z,99874.34
2023-02-04T17:44:03.643Z,99880.73
2023-02-04T17:46:32.098Z,99882.08
2023-02-04T17:49:00.289Z,99880.88
2023-02-04T17:51:28.929Z,99881.78
2023-02-04T17:53:57.416Z,99883.94
2023-02-04T17:56:28.447Z,99887.48
2023-02-04T17:58:56.975Z,99891.66
2023-02-04T18:01:26.010Z,99901.02
2023-02-04T18:03:54.911Z,99902.80
2023-02-04T18:06:27.318Z,99910.30
2023-02-04T18:09:01.725Z,99914.33
2023-02-04T18:11:33.177Z,99912.89
2023-02-04T18:14:05.239Z,99912.80
2023-02-04T18:16:34.748Z,99918.17
2023-02-04T18:19:15.882Z,99922.67
2023-02-04T18:21:44.202Z,99926.38
2023-02-04T18:24:18.402Z,99925.26
2023-02-04T18:26:48.863Z,99933.60
2023-02-04T18:29:33.266Z,99936.08
2023-02-04T18:32:13.083Z,99938.40
2023-02-04T18:34:46.844Z,99939.69
2023-02-04T18:37:37.049Z,99939.64
2023-02-04T18:40:11.906Z,99941.76
2023-02-04T18:42:42.063Z,99943.17
2023-02-04T18:45:30.280Z,99946.17
2023-02-04T18:48:00.326Z,99947.23
2023-02-04T18:50:29.956Z,99944.85
2023-02-04T18:53:22.691Z,99944.02
2023-02-04T18:55:55.547Z,99944.42
2023-02-04T18:58:27.074Z,99949.23
2023-02-04T19:00:59.694Z,99949.45
2023-02-04T19:03:33.554Z,99946.95
2023-02-04T19:06:02.622Z,99949.83
2023-02-04T19:08:43.132Z,99954.14
2023-02-04T19:11:47.260Z,99957.21
2023-02-04T19:14:35.050Z,99958.94
2023-02-04T19:17:26.210Z,99963.89
2023-02-04T19:20:07.568Z,99970.57
2023-02-04T19:22:49.822Z,99971.81
2023-02-04T19:25:35.727Z,99972.29
2023-02-04T19:28:32.991Z,99976.84
2023-02-04T19:31:01.517Z,99972.13
2023-02-04T19:33:39.281Z,99973.88
2023-02-04T19:36:15.068Z,99978.67
2023-02-04T19:38:45.336Z,99978.85
2023-02-04T19:41:26.704Z,99978.66
2023-02-04T19:44:18.537Z,99980.10
2023-02-04T19:46:46.705Z,99981.21
2023-02-04T19:49:23.744Z,99979.60
2023-02-04T19:51:54.422Z,99983.98
2023-02-04T19:54:25.313Z,99987.89
2023-02-04T19:56:54.518Z,99992.02
2023-02-04T19:59:27.027Z,99998.12
2023-02-04T20:02:34.905Z,99998.82
2023-02-04T20:05:03.307Z,99997.86
2023-02-04T20:07:32.405Z,99999.95
2023-02-04T20:10:30.495Z,100003.10
2023-02-04T20:13:00.316Z,100004.77
2023-02-04T20:15:28.941Z,100009.19
2023-02-04T20:17:57.077Z,100005.82
2023-02-04T20:20:30.611Z,100001.66
2023-02-04T20:23:02.771Z,100003.34
2023-02-04T20:25:37.084Z,100009.79
2023-02-04T20:28:20.458Z,100004.81
2023-02-04T20:30:50.439Z,100006.42
2023-02-04T20:33:25.457Z,100013.92
2023-02-04T20:36:22.306Z,100016.20
2023-02-04T20:38:50.413Z,100012.47
2023-02-04T20:41:21.793Z,100011.55
2023-02-04T20:43:50.319Z,100010.97
2023-02-04T20:46:24.598Z,100012.57
2023-02-04T20:48:52.808Z,100019.73
2023-02-04T20:51:24.174Z,100027.74
2023-02-04T20:53:53.845Z,100032.43
2023-02-04T20:56:35.370Z,100032.95
2023-02-04T20:59:13.071Z,100037.37
2023-02-04T21:01:44.278Z,100036.14
2023-02-04T21:04:34.413Z,100033.98
2023-02-04T21:07:11.043Z,100033.35
2023-02-04T21:09:40.540Z,100036.25
2023-02-04T21:12:09.114Z,100040.35
2023-02-04T21:14:37.346Z,100036.25
2023-02-04T21:17:05.524Z,100034.61
2023-02-04T21:19:35.438Z,100039.86
2023-02-04T21:22:03.592Z,100041.61
2023-02-04T21:24:32.148Z,100045.29
2023-02-04T21:27:00.517Z,100050.23
2023-02-04T21:29:28.990Z,100048.86
2023-02-04T21:31:57.571Z,100055.48
2023-02-04T21:34:25.821Z,100057.91
2023-02-04T21:36:54.362Z,100058.21
2023-02-04T21:39:22.777Z,100060.41
2023-02-04T21:42:10.333Z,100064.52
2023-02-04T21:44:39.235Z,100061.02
2023-02-04T21:47:08.413Z,100056.63
2023-02-04T21:49:39.072Z,100057.11
2023-02-04T21:52:08.615Z,100058.39
2023-02-04T21:54:36.666Z,100060.48
2023-02-04T21:57:05.197Z,100056.67
2023-02-04T21:59:33.520Z,100055.74
2023-02-04T22:02:01.912Z,100058.98
2023-02-04T22:04:30.455Z,100056.35
2023-02-04T22:06:59.128Z,100058.72
2023-02-04T22:09:27.400Z,100057.91
2023-02-04T22:11:55.487Z,100062.23
2023-02-04T22:14:44.546Z,100063.38
2023-02-04T22:17:12.668Z,100069.42
2023-02-04T22:19:40.867Z,100067.58
2023-02-04T22:22:09.184Z,100070.95
2023-02-04T22:24:37.526Z,100070.80
2023-02-04T22:27:06.105Z,100072.36
2023-02-04T22:29:34.569Z,100074.06
2023-02-04T22:32:02.818Z,100075.64
2023-02-04T22:34:31.659Z,100076.41
2023-02-04T22:37:00.180Z,100076.95
2023-02-04T22:39:28.310Z,100069.83
2023-02-04T22:41:56.459Z,100068.40
2023-02-04T22:44:25.060Z,100074.39
2023-02-04T22:46:53.887Z,100073.94
2023-02-04T22:49:22.304Z,100073.73
2023-02-04T22:51:50.493Z,100076.09
2023-02-04T22:54:18.566Z,100071.14
2023-02-04T22:56:47.358Z,100071.42
2023-02-04T22:59:15.566Z,100073.89
2023-02-04T23:01:43.989Z,100076.71
2023-02-04T23:04:12.176Z,100074.80
2023-02-04T23:06:40.226Z,100080.57
2023-02-04T23:09:08.915Z,100079.86
2023-02-04T23:11:37.392Z,100073.27
2023-02-04T23:14:06.191Z,100080.33
2023-02-04T23:16:35.283Z,100079.52
2023-02-04T23:19:03.719Z,100080.86
2023-02-04T23:21:33.750Z,100081.59
2023-02-04T23:24:02.058Z,100081.45
2023-02-04T23:26:30.309Z,100078.20
2023-02-04T23:29:00.903Z,100077.26
2023-02-04T23:31:29.247Z,100077.41
2023-02-04T23:33:57.753Z,100080.20
2023-02-04T23:36:25.855Z,100078.89
2023-02-04T23:38:54.066Z,100085.44
2023-02-04T23:41:22.199Z,100085.91
2023-02-04T23:43:50.255Z,100085.17
2023-02-04T23:46:18.400Z,100086.09
2023-02-04T23:48:46.494Z,100083.62
2023-02-04T23:51:14.560Z,100084.29
2023-02-04T23:53:42.640Z,100089.67
2023-02-04T23:56:10.723Z,100090.65
2023-02-04T23:58:39.332Z,100084.69
